createdAt,value
2018-02-09T00:00:28.296Z,54.38
2018-02-09T00:03:00.692Z,55.12
2018-02-09T00:05:28.213Z,54.45
2018-02-09T00:08:00.142Z,52.22
2018-02-09T00:10:27.746Z,52.60
2018-02-09T00:12:55.241Z,54.42
2018-02-09T00:15:23.164Z,56.83
2018-02-09T00:17:52.373Z,54.83
2018-02-09T00:20:21.694Z,54.50
2018-02-09T00:22:53.700Z,57.58
2018-02-09T00:25:21.608Z,56.20
2018-02-09T00:28:00.720Z,55.05
2018-02-09T00:30:28.992Z,51.75
2018-02-09T00:32:56.485Z,57.40
2018-02-09T00:35:24.814Z,56.35
2018-02-09T00:37:53.568Z,53.72
2018-02-09T00:40:21.717Z,57.15
2018-02-09T00:42:52.462Z,52.92
2018-02-09T00:45:35.838Z,51.50
2018-02-09T00:48:03.369Z,53.38
2018-02-09T00:50:31.033Z,56.22
2018-02-09T00:52:58.596Z,55.90
2018-02-09T00:55:26.886Z,54.35
2018-02-09T00:57:54.388Z,53.92
2018-02-09T01:00:22.921Z,55.28
2018-02-09T01:02:51.602Z,52.90
2018-02-09T01:06:03.334Z,56.00
2018-02-09T01:08:31.228Z,54.40
2018-02-09T01:10:58.740Z,54.70
2018-02-09T01:13:26.302Z,52.83
2018-02-09T01:15:54.121Z,56.08
2018-02-09T01:18:27.120Z,56.95
2018-02-09T01:21:01.148Z,53.47
2018-02-09T01:23:28.639Z,54.53
2018-02-09T01:25:56.269Z,51.45
2018-02-09T01:28:24.134Z,53.55
2018-02-09T01:30:52.860Z,51.92
2018-02-09T01:33:22.453Z,55.25
2018-02-09T01:35:52.454Z,55.95
2018-02-09T01:38:23.232Z,48.35
2018-02-09T01:40:53.818Z,52.55
2018-02-09T01:43:24.560Z,52.80
2018-02-09T01:45:54.194Z,55.05
2018-02-09T01:48:28.514Z,49.85
2018-02-09T01:50:56.037Z,52.53
2018-02-09T01:53:24.372Z,51.37
2018-02-09T01:55:57.685Z,52.70
2018-02-09T01:58:28.097Z,51.25
2018-02-09T02:00:55.619Z,51.97
2018-02-09T02:03:23.459Z,50.83
2018-02-09T02:06:04.696Z,50.10
2018-02-09T02:08:32.484Z,51.45
2018-02-09T02:11:00.769Z,50.50
2018-02-09T02:13:34.192Z,52.22
2018-02-09T02:16:23.753Z,44.67
2018-02-09T02:19:09.038Z,51.75
2018-02-09T02:21:36.636Z,47.42
2018-02-09T02:24:04.133Z,50.45
2018-02-09T02:26:31.644Z,50.78
2018-02-09T02:28:59.136Z,46.90
2018-02-09T02:31:26.753Z,45.45
2018-02-09T02:34:05.662Z,48.90
2018-02-09T02:36:33.177Z,48.87
2018-02-09T02:39:01.445Z,50.45
2018-02-09T02:41:29.045Z,46.97
2018-02-09T02:43:57.307Z,47.72
2018-02-09T02:46:24.825Z,45.65
2018-02-09T02:48:54.979Z,51.00
2018-02-09T02:51:34.362Z,48.63
2018-02-09T02:54:02.281Z,46.30
2018-02-09T02:56:53.778Z,44.08
2018-02-09T02:59:23.724Z,51.28
2018-02-09T03:01:54.173Z,50.42
2018-02-09T03:04:23.980Z,50.08
2018-02-09T03:06:52.417Z,48.05
2018-02-09T03:09:25.356Z,51.92
2018-02-09T03:11:53.377Z,51.70
2018-02-09T03:14:22.505Z,49.33
2018-02-09T03:17:01.897Z,54.08
2018-02-09T03:19:29.392Z,47.78
2018-02-09T03:21:56.905Z,51.75
2018-02-09T03:24:24.400Z,49.10
2018-02-09T03:26:52.409Z,52.80
2018-02-09T03:29:20.874Z,56.03
2018-02-09T03:31:52.432Z,50.50
2018-02-09T03:34:25.096Z,50.17
2018-02-09T03:36:53.752Z,49.08
2018-02-09T03:39:23.583Z,43.90
2018-02-09T03:41:52.364Z,46.97
2018-02-09T03:44:21.530Z,50.88
2018-02-09T03:46:50.462Z,46.17
2018-02-09T03:49:22.417Z,51.37
2018-02-09T03:51:56.984Z,48.53
2018-02-09T03:54:53.088Z,46.92
2018-02-09T03:57:30.909Z,49.08
2018-02-09T03:59:58.405Z,45.53
2018-02-09T04:02:25.924Z,51.25
2018-02-09T04:04:53.469Z,42.95
2018-02-09T04:07:22.364Z,48.33
2018-02-09T04:09:54.574Z,45.45
2018-02-09T04:12:22.581Z,48.25
2018-02-09T04:14:55.253Z,46.42
2018-02-09T04:17:25.810Z,47.20
2018-02-09T04:19:55.273Z,50.35
2018-02-09T04:22:36.709Z,48.70
2018-02-09T04:25:04.328Z,46.83
2018-02-09T04:27:31.848Z,48.15
2018-02-09T04:30:00.108Z,45.17
2018-02-09T04:32:30.717Z,44.58
2018-02-09T04:34:58.209Z,45.30
2018-02-09T04:37:25.724Z,47.08
2018-02-09T04:39:53.221Z,43.28
2018-02-09T04:42:36.907Z,42.70
2018-02-09T04:45:05.762Z,45.05
2018-02-09T04:47:34.248Z,43.08
2018-02-09T04:50:01.812Z,46.53
2018-02-09T04:52:29.324Z,46.35
2018-02-09T04:55:02.835Z,43.40
2018-02-09T04:57:30.344Z,45.03
2018-02-09T04:59:57.839Z,44.95
2018-02-09T05:02:25.365Z,39.85
2018-02-09T05:04:53.629Z,40.30
2018-02-09T05:07:24.400Z,44.90
2018-02-09T05:09:54.709Z,49.65
2018-02-09T05:12:22.684Z,45.20
2018-02-09T05:14:54.180Z,43.95
2018-02-09T05:17:50.942Z,47.08
2018-02-09T05:20:23.565Z,34.92
2018-02-09T05:22:51.972Z,42.83
2018-02-09T05:25:24.000Z,45.72
2018-02-09T05:27:53.544Z,41.78
2018-02-09T05:30:21.040Z,41.00
2018-02-09T05:32:53.743Z,42.00
2018-02-09T05:35:33.933Z,44.03
2018-02-09T05:38:02.499Z,39.88
2018-02-09T05:40:30.780Z,42.30
2018-02-09T05:42:59.052Z,43.95
2018-02-09T05:48:21.182Z,41.97
2018-02-09T05:50:54.048Z,46.67
2018-02-09T05:53:23.776Z,42.90
2018-02-09T05:56:00.061Z,44.17
2018-02-09T05:58:28.336Z,34.53
2018-02-09T06:00:55.828Z,45.05
2018-02-09T06:03:24.104Z,40.22
2018-02-09T06:05:51.776Z,45.78
2018-02-09T06:08:23.164Z,45.50
2018-02-09T06:10:54.069Z,43.92
2018-02-09T06:13:24.628Z,40.63
2018-02-09T06:15:53.857Z,45.95
2018-02-09T06:18:23.224Z,45.38
2018-02-09T06:20:52.336Z,46.15
2018-02-09T06:23:30.988Z,46.50
2018-02-09T06:25:59.324Z,50.88
2018-02-09T06:28:26.836Z,47.67
2018-02-09T06:30:55.301Z,48.17
2018-02-09T06:33:23.785Z,49.33
2018-02-09T06:35:55.124Z,47.75
2018-02-09T06:38:23.195Z,48.50
2018-02-09T06:40:54.773Z,45.28
2018-02-09T06:43:24.843Z,46.63
2018-02-09T06:45:55.009Z,43.85
2018-02-09T06:48:24.933Z,41.95
2018-02-09T06:50:52.500Z,45.08
2018-02-09T06:53:28.469Z,41.95
2018-02-09T06:55:56.022Z,46.72
2018-02-09T06:58:25.373Z,41.40
2018-02-09T07:00:53.912Z,43.08
2018-02-09T07:03:24.088Z,40.40
2018-02-09T07:05:54.173Z,37.80
2018-02-09T07:08:23.284Z,43.90
2018-02-09T07:10:53.201Z,42.33
2018-02-09T07:13:27.537Z,40.80
2018-02-09T07:15:55.424Z,42.50
2018-02-09T07:18:24.140Z,36.72
2018-02-09T07:20:54.181Z,44.55
2018-02-09T07:23:22.108Z,31.48
2018-02-09T07:25:51.659Z,41.00
2018-02-09T07:28:21.334Z,40.58
2018-02-09T07:30:53.029Z,35.88
2018-02-09T07:33:24.274Z,40.10
2018-02-09T07:35:52.573Z,41.95
2018-02-09T07:38:20.151Z,36.90
2018-02-09T07:40:49.886Z,41.15
2018-02-09T07:43:17.674Z,41.42
2018-02-09T07:45:45.691Z,42.92
2018-02-09T07:48:18.842Z,39.63
2018-02-09T07:50:50.285Z,35.25
2018-02-09T07:53:21.401Z,41.15
2018-02-09T07:55:53.316Z,38.15
2018-02-09T07:58:23.774Z,37.38
2018-02-09T08:00:53.341Z,42.53
2018-02-09T08:03:23.640Z,42.28
2018-02-09T08:05:53.069Z,39.05
2018-02-09T08:08:23.401Z,38.28
2018-02-09T08:10:53.008Z,41.08
2018-02-09T08:13:22.384Z,34.67
2018-02-09T08:15:53.811Z,38.30
2018-02-09T08:18:24.487Z,42.15
2018-02-09T08:20:53.268Z,37.65
2018-02-09T08:23:24.048Z,37.22
2018-02-09T08:25:54.256Z,36.42
2018-02-09T08:28:23.148Z,40.67
2018-02-09T08:30:53.489Z,39.90
2018-02-09T08:33:23.664Z,39.80
2018-02-09T08:35:53.948Z,42.45
2018-02-09T08:38:22.244Z,40.50
2018-02-09T08:40:52.367Z,35.43
2018-02-09T08:43:22.724Z,40.27
2018-02-09T08:45:52.528Z,40.80
2018-02-09T08:48:31.711Z,41.73
2018-02-09T08:50:59.212Z,44.73
2018-02-09T08:53:26.700Z,42.47
2018-02-09T08:55:54.206Z,44.70
2018-02-09T08:58:23.048Z,45.33
2018-02-09T09:01:00.625Z,46.30
2018-02-09T09:03:28.108Z,40.57
2018-02-09T09:05:55.647Z,49.60
2018-02-09T09:08:23.936Z,49.90
2018-02-09T09:10:53.260Z,36.67
2018-02-09T09:13:31.751Z,48.80
2018-02-09T09:15:59.248Z,49.97
2018-02-09T09:18:27.504Z,45.07
2018-02-09T09:20:55.008Z,49.30
2018-02-09T09:23:23.264Z,48.60
2018-02-09T09:25:51.081Z,51.53
2018-02-09T09:28:19.606Z,48.33
2018-02-09T09:30:48.002Z,48.73
2018-02-09T09:33:17.631Z,46.40
2018-02-09T09:35:47.934Z,48.07
2018-02-09T09:38:18.835Z,43.97
2018-02-09T09:40:49.294Z,50.83
2018-02-09T09:43:18.967Z,46.73
2018-02-09T09:45:46.937Z,51.60
2018-02-09T09:48:17.434Z,51.80
2018-02-09T09:50:56.076Z,54.53
2018-02-09T09:53:23.570Z,50.50
2018-02-09T09:55:51.892Z,52.73
2018-02-09T09:58:19.764Z,53.53
2018-02-09T10:00:47.314Z,53.10
2018-02-09T10:03:14.959Z,51.90
2018-02-09T10:05:43.232Z,55.30
2018-02-09T10:08:11.042Z,57.20
2018-02-09T10:10:38.565Z,53.57
2018-02-09T10:13:06.057Z,55.10
2018-02-09T10:15:33.587Z,55.30
2018-02-09T10:18:01.122Z,56.00
2018-02-09T10:20:29.397Z,52.37
2018-02-09T10:22:56.885Z,47.90
2018-02-09T10:25:25.160Z,50.97
2018-02-09T10:27:52.649Z,54.40
2018-02-09T10:30:20.919Z,49.83
2018-02-09T10:32:48.461Z,53.57
2018-02-09T10:35:16.173Z,52.87
2018-02-09T10:37:44.558Z,49.47
2018-02-09T10:40:14.146Z,48.47
2018-02-09T10:42:41.799Z,50.77
2018-02-09T10:45:09.316Z,51.90
2018-02-09T10:47:37.045Z,52.17
2018-02-09T10:50:04.548Z,49.37
2018-02-09T10:52:32.127Z,50.10
2018-02-09T10:54:59.725Z,45.00
2018-02-09T10:57:28.000Z,49.70
2018-02-09T10:59:55.508Z,48.97
2018-02-09T11:02:22.997Z,50.07
2018-02-09T11:04:50.500Z,43.90
2018-02-09T11:07:18.805Z,49.67
2018-02-09T11:09:46.489Z,45.70
2018-02-09T11:12:14.970Z,46.60
2018-02-09T11:14:42.497Z,44.33
2018-02-09T11:17:10.055Z,44.50
2018-02-09T11:19:37.556Z,45.13
2018-02-09T11:22:05.088Z,45.60
2018-02-09T11:24:32.612Z,46.40
2018-02-09T11:27:00.140Z,46.10
2018-02-09T11:29:27.628Z,45.50
2018-02-09T11:31:55.163Z,43.60
2018-02-09T11:34:23.444Z,41.10
2018-02-09T11:36:51.717Z,42.53
2018-02-09T11:39:19.786Z,37.53
2018-02-09T11:41:47.408Z,40.50
2018-02-09T11:44:15.506Z,32.67
2018-02-09T11:46:43.128Z,39.77
2018-02-09T11:49:11.790Z,38.33
2018-02-09T11:51:40.130Z,42.30
2018-02-09T11:54:07.720Z,37.97
2018-02-09T11:56:36.513Z,35.20
2018-02-09T11:59:05.213Z,38.83
2018-02-09T12:01:32.787Z,35.93
2018-02-09T12:04:01.210Z,36.03
2018-02-09T12:06:28.732Z,38.53
2018-02-09T12:08:56.227Z,38.00
2018-02-09T12:11:24.504Z,37.53
2018-02-09T12:13:52.796Z,38.37
2018-02-09T12:16:21.089Z,36.47
2018-02-09T12:18:49.576Z,34.93
2018-02-09T12:21:17.887Z,34.83
2018-02-09T12:23:45.449Z,37.20
2018-02-09T12:26:16.942Z,34.40
2018-02-09T12:28:44.618Z,27.13
2018-02-09T12:31:12.804Z,34.80
2018-02-09T12:33:40.336Z,36.13
2018-02-09T12:36:08.178Z,34.50
2018-02-09T12:38:35.727Z,34.00
2018-02-09T12:41:03.264Z,31.50
2018-02-09T12:43:30.784Z,30.10
2018-02-09T12:45:58.292Z,38.23
2018-02-09T12:48:25.780Z,34.60
2018-02-09T12:50:54.060Z,36.40
2018-02-09T12:53:21.840Z,32.03
2018-02-09T12:55:50.893Z,34.00
2018-02-09T12:58:19.788Z,37.73
2018-02-09T13:00:48.500Z,38.23
2018-02-09T13:03:18.139Z,31.00
2018-02-09T13:06:15.164Z,37.33
2018-02-09T13:08:48.125Z,31.90
2018-02-09T13:11:20.186Z,35.73
2018-02-09T13:13:59.741Z,34.83
2018-02-09T13:16:27.252Z,36.33
2018-02-09T13:18:54.754Z,33.30
2018-02-09T13:21:22.629Z,36.30
2018-02-09T13:24:02.084Z,35.80
2018-02-09T13:26:29.584Z,37.23
2018-02-09T13:28:59.809Z,37.10
2018-02-09T13:31:27.312Z,35.93
2018-02-09T13:33:54.806Z,37.13
2018-02-09T13:36:35.390Z,36.30
2018-02-09T13:39:03.053Z,31.37
2018-02-09T13:41:30.573Z,34.60
2018-02-09T13:43:58.060Z,34.87
2018-02-09T13:46:27.684Z,35.33
2018-02-09T13:48:55.196Z,35.90
2018-02-09T13:51:33.720Z,33.63
2018-02-09T13:54:01.318Z,36.87
2018-02-09T13:56:29.696Z,37.00
2018-02-09T13:58:57.209Z,28.70
2018-02-09T14:01:36.385Z,35.60
2018-02-09T14:04:03.878Z,36.17
2018-02-09T14:06:31.365Z,32.77
2018-02-09T14:09:02.556Z,33.30
2018-02-09T14:11:30.047Z,32.17
2018-02-09T14:13:58.328Z,33.50
2018-02-09T14:16:25.908Z,34.63
2018-02-09T14:18:53.684Z,32.70
2018-02-09T14:21:24.893Z,30.93
2018-02-09T14:23:55.133Z,34.97
2018-02-09T14:26:25.119Z,35.13
2018-02-09T14:28:54.580Z,33.07
2018-02-09T14:31:24.737Z,34.83
2018-02-09T14:33:52.929Z,35.17
2018-02-09T14:36:22.876Z,32.40
2018-02-09T14:38:53.059Z,31.73
2018-02-09T14:41:20.929Z,28.87
2018-02-09T14:43:53.566Z,27.70
2018-02-09T14:46:23.764Z,30.47
2018-02-09T14:48:54.792Z,30.03
2018-02-09T14:51:24.053Z,28.50
2018-02-09T14:53:54.988Z,26.17
2018-02-09T14:56:25.277Z,24.43
2018-02-09T14:59:05.236Z,24.03
2018-02-09T15:01:33.055Z,24.90
2018-02-09T15:04:00.565Z,21.13
2018-02-09T15:06:28.056Z,26.53
2018-02-09T15:08:56.439Z,23.90
2018-02-09T15:11:25.638Z,24.33
2018-02-09T15:13:53.224Z,22.70
2018-02-09T15:16:24.852Z,21.03
2018-02-09T15:18:53.835Z,21.70
2018-02-09T15:21:21.660Z,22.90
2018-02-09T15:23:50.580Z,21.87
2018-02-09T15:26:18.894Z,21.97
2018-02-09T15:28:47.496Z,19.87
2018-02-09T15:31:16.298Z,18.63
2018-02-09T15:33:48.081Z,19.57
2018-02-09T15:36:19.091Z,20.93
2018-02-09T15:38:48.752Z,18.07
2018-02-09T15:41:18.480Z,17.57
2018-02-09T15:43:53.305Z,18.00
2018-02-09T15:46:24.119Z,19.20
2018-02-09T15:48:54.728Z,18.20
2018-02-09T15:51:24.948Z,18.10
2018-02-09T15:53:55.208Z,17.52
2018-02-09T15:56:22.834Z,17.15
2018-02-09T15:58:54.015Z,16.92
2018-02-09T16:01:50.133Z,15.75
2018-02-09T16:04:24.236Z,16.17
2018-02-09T16:07:00.914Z,16.45
2018-02-09T16:09:28.424Z,15.30
2018-02-09T16:11:55.928Z,15.40
2018-02-09T16:14:25.421Z,14.87
2018-02-09T16:16:55.001Z,15.90
2018-02-09T16:19:23.069Z,15.30
2018-02-09T16:21:54.300Z,17.67
2018-02-09T16:24:24.900Z,13.80
2018-02-09T16:26:55.244Z,15.70
2018-02-09T16:29:25.137Z,14.77
2018-02-09T16:31:54.916Z,16.75
2018-02-09T16:34:25.050Z,18.20
2018-02-09T16:36:55.148Z,18.73
2018-02-09T16:39:22.958Z,17.27
2018-02-09T16:41:54.800Z,18.03
2018-02-09T16:44:24.873Z,16.02
2018-02-09T16:46:54.364Z,16.97
2018-02-09T16:49:22.835Z,17.33
2018-02-09T16:51:54.946Z,16.83
2018-02-09T16:54:23.645Z,16.07
2018-02-09T16:56:55.313Z,16.15
2018-02-09T16:59:24.084Z,14.77
2018-02-09T17:01:55.514Z,16.45
2018-02-09T17:04:25.592Z,17.20
2018-02-09T17:06:59.022Z,15.27
2018-02-09T17:09:34.842Z,15.67
2018-02-09T17:12:03.612Z,14.67
2018-02-09T17:14:31.165Z,13.20
2018-02-09T17:17:23.553Z,15.05
2018-02-09T17:19:53.912Z,13.95
2018-02-09T17:22:22.053Z,10.47
2018-02-09T17:24:51.306Z,14.52
2018-02-09T17:27:24.348Z,14.57
2018-02-09T17:29:52.200Z,16.80
2018-02-09T17:32:21.536Z,15.82
2018-02-09T17:34:59.451Z,14.57
2018-02-09T17:37:28.060Z,16.03
2018-02-09T17:39:56.088Z,16.00
2018-02-09T17:42:25.676Z,14.73
2018-02-09T17:44:53.408Z,15.25
2018-02-09T17:47:24.893Z,15.77
2018-02-09T17:49:52.829Z,14.30
2018-02-09T17:52:21.161Z,13.80
2018-02-09T17:54:55.715Z,13.73
2018-02-09T17:57:25.524Z,16.52
2018-02-09T17:59:55.799Z,13.77
2018-02-09T18:02:38.548Z,12.65
2018-02-09T18:05:11.968Z,14.03
2018-02-09T18:07:49.942Z,13.83
2018-02-09T18:10:25.755Z,13.13
2018-02-09T18:13:00.446Z,13.88
2018-02-09T18:15:27.968Z,14.40
2018-02-09T18:17:58.617Z,14.65
2018-02-09T18:20:26.920Z,14.05
2018-02-09T18:23:03.433Z,15.55
2018-02-09T18:25:30.956Z,15.05
2018-02-09T18:27:58.515Z,14.40
2018-02-09T18:30:26.193Z,15.37
2018-02-09T18:32:55.994Z,13.50
2018-02-09T18:35:26.088Z,14.38
2018-02-09T18:37:56.269Z,14.80
2018-02-09T18:40:23.867Z,15.13
2018-02-09T18:42:55.518Z,15.73
2018-02-09T18:45:23.293Z,12.67
2018-02-09T18:47:51.431Z,15.80
2018-02-09T18:50:25.900Z,14.57
2018-02-09T18:52:55.065Z,15.67
2018-02-09T18:55:23.144Z,13.80
2018-02-09T18:57:52.012Z,13.20
2018-02-09T19:00:22.061Z,14.30
2018-02-09T19:03:04.036Z,14.98
2018-02-09T19:05:31.552Z,14.68
2018-02-09T19:07:59.083Z,13.87
2018-02-09T19:10:29.026Z,15.30
2018-02-09T19:12:56.524Z,15.80
2018-02-09T19:15:24.049Z,16.27
2018-02-09T19:17:55.795Z,14.68
2018-02-09T19:20:23.875Z,14.32
2018-02-09T19:23:01.032Z,15.77
2018-02-09T19:25:28.544Z,14.63
2018-02-09T19:28:06.712Z,13.63
2018-02-09T19:30:34.237Z,13.85
2018-02-09T19:33:01.737Z,13.62
2018-02-09T19:35:29.257Z,15.35
2018-02-09T19:37:56.749Z,14.65
2018-02-09T19:40:24.949Z,14.75
2018-02-09T19:42:55.228Z,13.77
2018-02-09T19:45:25.281Z,13.70
2018-02-09T19:47:55.097Z,15.25
2018-02-09T19:50:25.137Z,14.30
2018-02-09T19:52:55.500Z,14.50
2018-02-09T19:55:30.328Z,15.32
2018-02-09T19:57:57.840Z,14.17
2018-02-09T20:00:25.346Z,14.23
2018-02-09T20:02:53.608Z,12.32
2018-02-09T20:05:24.936Z,13.70
2018-02-09T20:07:54.480Z,14.10
2018-02-09T20:10:37.792Z,14.40
2018-02-09T20:13:05.293Z,12.60
2018-02-09T20:15:32.826Z,14.63
2018-02-09T20:18:00.372Z,13.30
2018-02-09T20:20:27.881Z,15.87
2018-02-09T20:22:55.376Z,13.93
2018-02-09T20:25:25.096Z,12.73
2018-02-09T20:27:55.201Z,13.73
2018-02-09T20:30:24.900Z,12.65
2018-02-09T20:32:53.247Z,15.10
2018-02-09T20:35:22.177Z,14.17
2018-02-09T20:37:50.902Z,12.63
2018-02-09T20:40:27.749Z,15.27
2018-02-09T20:42:55.416Z,13.07
2018-02-09T20:45:25.256Z,13.63
2018-02-09T20:47:53.004Z,12.05
2018-02-09T20:50:24.928Z,15.37
2018-02-09T20:52:55.584Z,13.55
2018-02-09T20:55:23.294Z,16.17
2018-02-09T20:57:54.928Z,14.10
2018-02-09T21:00:25.241Z,12.80
2018-02-09T21:02:53.309Z,12.93
2018-02-09T21:05:25.079Z,14.93
2018-02-09T21:07:55.320Z,14.90
2018-02-09T21:10:25.320Z,13.70
2018-02-09T21:12:55.544Z,14.77
2018-02-09T21:15:23.268Z,14.57
2018-02-09T21:17:51.738Z,15.02
2018-02-09T21:20:22.265Z,15.23
2018-02-09T21:22:54.196Z,14.90
2018-02-09T21:25:25.180Z,14.73
2018-02-09T21:27:55.553Z,14.35
2018-02-09T21:30:28.200Z,16.27
2018-02-09T21:32:55.736Z,14.80
2018-02-09T21:35:24.764Z,14.67
2018-02-09T21:37:55.396Z,14.37
2018-02-09T21:40:25.341Z,13.85
2018-02-09T21:43:01.232Z,15.43
2018-02-09T21:45:28.732Z,16.37
2018-02-09T21:47:57.043Z,13.97
2018-02-09T21:50:25.717Z,14.30
2018-02-09T21:53:01.232Z,14.03
2018-02-09T21:55:28.720Z,15.27
2018-02-09T21:57:56.232Z,14.77
2018-02-09T22:00:25.835Z,15.03
2018-02-09T22:02:55.432Z,15.20
2018-02-09T22:05:27.808Z,16.07
2018-02-09T22:07:55.740Z,13.80
2018-02-09T22:10:25.524Z,16.43
2018-02-09T22:12:55.749Z,16.30
2018-02-09T22:15:23.436Z,15.20
2018-02-09T22:17:54.940Z,15.37
2018-02-09T22:20:25.774Z,15.90
2018-02-09T22:22:55.449Z,16.30
2018-02-09T22:25:25.737Z,15.83
2018-02-09T22:27:53.732Z,14.87
2018-02-09T22:30:22.658Z,17.37
2018-02-09T22:32:55.310Z,15.90
2018-02-09T22:35:25.601Z,15.83
2018-02-09T22:37:53.664Z,16.63
2018-02-09T22:40:23.525Z,16.80
2018-02-09T22:42:55.426Z,15.27
2018-02-09T22:45:23.965Z,16.33
2018-02-09T22:47:55.644Z,16.12
2018-02-09T22:50:23.766Z,16.57
2018-02-09T22:52:53.437Z,18.70
2018-02-09T22:55:23.345Z,16.60
2018-02-09T22:57:55.816Z,15.90
2018-02-09T23:00:23.884Z,17.57
2018-02-09T23:02:53.048Z,16.60
2018-02-09T23:05:30.876Z,16.57
2018-02-09T23:07:58.392Z,16.63
2018-02-09T23:10:27.311Z,18.10
2018-02-09T23:12:57.850Z,19.60
2018-02-09T23:15:26.457Z,17.40
2018-02-09T23:17:53.959Z,18.90
2018-02-09T23:20:25.717Z,18.60
2018-02-09T23:22:55.228Z,20.50
2018-02-09T23:25:48.293Z,18.50
2018-02-09T23:28:23.009Z,17.13
2018-02-09T23:30:57.447Z,19.83
2018-02-09T23:33:25.109Z,18.70
2018-02-09T23:36:00.016Z,17.60
2018-02-09T23:38:28.208Z,17.20
2018-02-09T23:40:55.720Z,20.00
2018-02-09T23:43:26.044Z,20.30
2018-02-09T23:45:55.285Z,21.15
2018-02-09T23:48:24.581Z,22.65
2018-02-09T23:50:55.920Z,23.30
2018-02-09T23:53:27.070Z,22.17
2018-02-09T23:55:54.980Z,22.52
2018-02-09T23:58:25.314Z,24.63
